Terminal Aerodrome Forecast
Issued by NWS

Home | Current Version | Previous Version | Text Only | Print | Product List | Glossary On
Versions: 1 2 3 4 5 6 7 8 9 10 11 12 13 14 15 16
726
FTUS42 KTBW 222320
TAFPGD
TAF
KPGD 222320Z 2300/2324 24012KT P6SM SCT250
     FM230100 21007KT P6SM SCT050 SCT250
     FM230400 15006KT P6SM FEW030 SCT250
     FM231300 18011KT P6SM SCT030 SCT250
     FM231600 21015G22KT P6SM SCT030 BKN250=

USA.gov is the U.S. government's official web portal to all federal, state and local government web resources and services.